Stradbroke Venture — 3823QD — position and weather

sailwx.info

Track history (hours):
 
Tides and Currents Weather Stations Pressure Air Temp Water Temp Dewpoint Dewpoint Depression Visibility Wind Speed Wind Dir Waves Ship Positions

Stradbroke Venture

Last reported at 2018-Jun-25 07:55 UTC. Time now 2018-Jun-25 08:09 UTC.
Position S 27°39' E 153°23'.

Length 54 m; draft 1.4 m.

Type: Other ship. MMSI: 503690000.

Date/timePositionNaut miles runAvg speedWind from/ knotsBaromVisibWave heightAir tempDewpointWater temp
2018-Jun-25 07:55S 27°39' E 153°23'1 2.4
2018-Jun-25 07:30S 27°38' E 153°22'2 3.6
2018-Jun-25 07:00S 27°38' E 153°20'2 4.0
2018-Jun-25 06:30S 27°37' E 153°19'3 5.8
2018-Jun-25 06:01S 27°38' E 153°22'1 2.7
2018-Jun-25 05:31S 27°39' E 153°23'1 2.2
2018-Jun-25 05:01S 27°38' E 153°22'2 4.0
2018-Jun-25 04:30S 27°38' E 153°20'1 1.4
2018-Jun-25 04:00S 27°37' E 153°19'3 5.0
2018-Jun-25 03:31S 27°38' E 153°22'1 2.3
2018-Jun-25 03:01S 27°39' E 153°23'1 2.7
2018-Jun-25 02:31S 27°38' E 153°22'2 4.3
2018-Jun-25 02:00S 27°37' E 153°19'0 0.2
2018-Jun-25 01:30S 27°37' E 153°19'2 4.9
2018-Jun-25 01:00S 27°38' E 153°22'1 2.3
2018-Jun-25 00:30S 27°39' E 153°23'1 1.8
2018-Jun-25 00:00S 27°38' E 153°22'2 3.9
2018-Jun-24 23:31S 27°38' E 153°20'2 3.6
2018-Jun-24 23:01S 27°37' E 153°19'3 5.3
2018-Jun-24 22:27S 27°38' E 153°22'1 2.7
2018-Jun-24 22:00S 27°39' E 153°23'1 1.9
2018-Jun-24 21:31S 27°38' E 153°22'2 3.2
2018-Jun-24 21:01S 27°38' E 153°21'2 4.7
2018-Jun-24 20:31S 27°37' E 153°19'0 0.0
2018-Jun-24 07:59S 27°37' E 153°19'2 4.1
2018-Jun-24 07:31S 27°38' E 153°20'2 3.7
2018-Jun-24 07:00S 27°38' E 153°22'1 2.3
2018-Jun-24 06:30S 27°38' E 153°24'2 4.6
2018-Jun-24 06:00S 27°39' E 153°21'3 5.5
2018-Jun-24 05:30S 27°37' E 153°19'3 5.6
2018-Jun-24 05:00S 27°39' E 153°21'2 4.1
2018-Jun-24 04:29S 27°38' E 153°23'0 0.4
2018-Jun-24 04:00S 27°38' E 153°24'3 5.1
2018-Jun-24 03:30S 27°39' E 153°21'2 4.9
2018-Jun-24 03:00S 27°37' E 153°19'3 5.7
2018-Jun-24 02:30S 27°38' E 153°22'1 1.5
2018-Jun-24 02:00S 27°38' E 153°22'1 1.8
2018-Jun-24 01:30S 27°39' E 153°23'2 3.1
2018-Jun-24 01:00S 27°38' E 153°21'3 5.4
2018-Jun-24 00:29S 27°37' E 153°19'2 3.6
2018-Jun-24 00:00S 27°38' E 153°20'2 4.1
2018-Jun-23 23:30S 27°38' E 153°22'1 1.7
2018-Jun-23 23:00S 27°39' E 153°23'1 2.5
2018-Jun-23 22:29S 27°38' E 153°22'3 6.1
2018-Jun-23 22:00S 27°37' E 153°19'0 0.0
2018-Jun-23 21:30S 27°37' E 153°19'0 0.0
2018-Jun-23 08:31S 27°37' E 153°19'0 0.0
2018-Jun-23 08:30S 27°37' E 153°19'3 6.3
2018-Jun-23 08:00S 27°39' E 153°22'1 1.8
2018-Jun-23 07:30S 27°38' E 153°22'2 4.3
2018-Jun-23 07:01S 27°38' E 153°20'1 2.2
2018-Jun-23 06:30S 27°37' E 153°19'2 4.7
2018-Jun-23 05:59S 27°38' E 153°22'1 2.6
2018-Jun-23 05:30S 27°39' E 153°23'1 2.0
2018-Jun-23 05:01S 27°38' E 153°22'2 4.5
2018-Jun-23 04:31S 27°38' E 153°20'1 1.8
2018-Jun-23 04:00S 27°37' E 153°19'3 5.0
2018-Jun-23 03:29S 27°38' E 153°22'1 2.5
2018-Jun-23 03:00S 27°39' E 153°23'1 2.3
2018-Jun-23 02:30S 27°38' E 153°22'2 4.9
2018-Jun-23 02:00S 27°37' E 153°19'0 0.8
2018-Jun-23 01:30S 27°37' E 153°19'3 5.2
2018-Jun-23 01:00S 27°38' E 153°22'1 2.4
2018-Jun-23 00:31S 27°39' E 153°23'1 2.3
2018-Jun-23 00:00S 27°38' E 153°22'2 3.7
2018-Jun-22 23:30S 27°38' E 153°20'1 2.9
2018-Jun-22 23:00S 27°37' E 153°19'3 5.7
2018-Jun-22 22:30S 27°38' E 153°22'1 1.9
2018-Jun-22 21:47S 27°39' E 153°23'1 3.7
2018-Jun-22 21:30S 27°38' E 153°22'2 4.5
2018-Jun-22 21:00S 27°38' E 153°20'1 2.3
2018-Jun-22 20:30S 27°37' E 153°19'0 0.0
2018-Jun-22 09:03S 27°37' E 153°19'0 0.2
2018-Jun-22 09:00S 27°37' E 153°19'3 5.4
2018-Jun-22 08:30S 27°39' E 153°21'2 3.5
2018-Jun-22 08:00S 27°39' E 153°23'1 1.8
2018-Jun-22 07:30S 27°38' E 153°22'2 3.5
2018-Jun-22 07:00S 27°38' E 153°20'2 4.3
2018-Jun-22 06:30S 27°37' E 153°19'3 5.8
2018-Jun-22 06:00S 27°38' E 153°22'1 2.6
2018-Jun-22 05:30S 27°39' E 153°23'1 2.4
2018-Jun-22 05:00S 27°38' E 153°22'2 3.5
2018-Jun-22 04:30S 27°38' E 153°20'1 2.3
2018-Jun-22 04:00S 27°37' E 153°19'3 5.3
2018-Jun-22 03:30S 27°38' E 153°22'1 2.1
2018-Jun-22 02:57S 27°39' E 153°23'1 2.6
2018-Jun-22 02:30S 27°38' E 153°22'2 4.6
2018-Jun-22 02:00S 27°37' E 153°19'1 1.4
2018-Jun-22 01:29S 27°37' E 153°19'3 5.5
2018-Jun-22 01:00S 27°38' E 153°22'1 2.4
2018-Jun-22 00:29S 27°39' E 153°23'1 2.1
2018-Jun-22 00:00S 27°38' E 153°22'2 4.5
2018-Jun-21 23:30S 27°38' E 153°20'0 0.8
2018-Jun-21 23:00S 27°37' E 153°19'2 4.7
2018-Jun-21 22:30S 27°38' E 153°22'1 2.3
2018-Jun-21 22:00S 27°39' E 153°23'1 2.0
2018-Jun-21 21:30S 27°38' E 153°22'2 3.4
2018-Jun-21 21:00S 27°38' E 153°20'2 4.0
2018-Jun-21 20:28S 27°37' E 153°19'0 0.0
2018-Jun-21 09:41S 27°37' E 153°19'0 0.0
2018-Jun-21 09:30S 27°37' E 153°19'0 0.8
2018-Jun-21 09:00S 27°37' E 153°19'3 5.3
2018-Jun-21 08:30S 27°38' E 153°22'1 2.5
2018-Jun-21 08:00S 27°39' E 153°23'1 2.2
2018-Jun-21 07:31S 27°38' E 153°22'3 5.0
2018-Jun-21 07:00S 27°37' E 153°19'1 1.2
2018-Jun-21 06:30S 27°37' E 153°19'3 5.7
2018-Jun-21 06:01S 27°38' E 153°22'1 2.4
2018-Jun-21 05:29S 27°39' E 153°23'1 2.0
2018-Jun-21 05:00S 27°38' E 153°22'2 3.7
2018-Jun-21 04:31S 27°38' E 153°20'2 4.0
2018-Jun-21 04:01S 27°37' E 153°19'3 5.9
2018-Jun-21 03:30S 27°38' E 153°22'1 2.0
2018-Jun-21 02:52S 27°39' E 153°23'1 3.0
2018-Jun-21 02:30S 27°38' E 153°22'2 4.6
2018-Jun-21 02:00S 27°37' E 153°19'0 0.4
2018-Jun-21 01:30S 27°37' E 153°19'2 4.8
2018-Jun-21 01:00S 27°38' E 153°22'1 2.0
2018-Jun-21 00:25S 27°39' E 153°23'1 2.8
2018-Jun-21 00:00S 27°38' E 153°22'2 4.8
2018-Jun-20 23:30S 27°37' E 153°19'1 1.9
2018-Jun-20 23:01S 27°38' E 153°20'2 3.6
2018-Jun-20 22:26S 27°38' E 153°22'1 1.8
2018-Jun-20 21:59S 27°39' E 153°23'1 2.4
2018-Jun-20 21:30S 27°38' E 153°22'2 3.4
2018-Jun-20 21:00S 27°38' E 153°20'2 3.4
2018-Jun-20 20:30S 27°37' E 153°19'0 0.0
2018-Jun-20 08:57S 27°37' E 153°19'2 5.0
2018-Jun-20 08:30S 27°38' E 153°21'2 4.3
2018-Jun-20 08:00S 27°39' E 153°23'1 1.8
2018-Jun-20 07:30S 27°38' E 153°22'2 4.0
2018-Jun-20 07:00S 27°38' E 153°20'2 3.4
2018-Jun-20 06:30S 27°37' E 153°19'3 5.7
2018-Jun-20 06:00S 27°38' E 153°21'1 2.7
2018-Jun-20 05:30S 27°39' E 153°23'1 2.3
2018-Jun-20 05:01S 27°38' E 153°22'2 4.0
2018-Jun-20 04:30S 27°38' E 153°20'1 2.4
2018-Jun-20 04:00S 27°37' E 153°19'3 5.5
2018-Jun-20 03:30S 27°38' E 153°22'1 2.6
2018-Jun-20 03:00S 27°39' E 153°23'1 1.9
2018-Jun-20 02:30S 27°38' E 153°22'2 3.7
2018-Jun-20 02:00S 27°38' E 153°20'2 3.6
2018-Jun-20 01:30S 27°37' E 153°19'3 5.6
2018-Jun-20 00:59S 27°38' E 153°22'1 2.6
2018-Jun-20 00:30S 27°39' E 153°23'1 2.3
2018-Jun-20 00:00S 27°38' E 153°22'2 4.5
2018-Jun-19 23:30S 27°37' E 153°19'0 0.7
2018-Jun-19 23:00S 27°38' E 153°20'2 4.2
2018-Jun-19 22:30S 27°38' E 153°22'1 1.8
2018-Jun-19 21:56S 27°39' E 153°23'1 2.8
2018-Jun-19 21:31S 27°38' E 153°22'2 3.1
2018-Jun-19 21:00S 27°38' E 153°20'2 3.6
2018-Jun-19 20:29S 27°37' E 153°19'0 0.0
2018-Jun-19 09:09S 27°37' E 153°19'0 0.0
2018-Jun-19 09:00S 27°37' E 153°19'3 5.6
2018-Jun-19 08:30S 27°38' E 153°21'1 2.9
2018-Jun-19 08:00S 27°39' E 153°23'1 1.9
2018-Jun-19 07:30S 27°38' E 153°22'2 4.0
2018-Jun-19 07:00S 27°38' E 153°20'2 3.4
2018-Jun-19 06:30S 27°37' E 153°19'3 5.7
2018-Jun-19 06:00S 27°38' E 153°21'1 2.8
2018-Jun-19 05:30S 27°39' E 153°23'1 2.4
2018-Jun-19 05:01S 27°38' E 153°22'3 6.1
2018-Jun-19 04:30S 27°37' E 153°19'2 4.2
2018-Jun-19 04:00S 27°38' E 153°20'2 3.4
2018-Jun-19 03:30S 27°38' E 153°22'1 2.4
2018-Jun-19 03:00S 27°38' E 153°24'2 3.9
2018-Jun-19 02:30S 27°38' E 153°21'3 5.6
2018-Jun-19 02:00S 27°37' E 153°19'3 5.5
2018-Jun-19 01:30S 27°39' E 153°21'2 3.9
2018-Jun-19 01:00S 27°38' E 153°23'0 0.2
2018-Jun-19 00:30S 27°38' E 153°23'2 3.1
2018-Jun-19 00:00S 27°38' E 153°21'3 5.6
2018-Jun-18 23:30S 27°37' E 153°19'2 4.6
2018-Jun-18 23:00S 27°38' E 153°21'2 3.3
2018-Jun-18 22:30S 27°38' E 153°22'1 1.8
2018-Jun-18 22:00S 27°39' E 153°23'1 2.3
2018-Jun-18 21:30S 27°38' E 153°22'2 3.6
2018-Jun-18 21:00S 27°38' E 153°20'2 3.1
2018-Jun-18 20:30S 27°37' E 153°19'0 0.0
2018-Jun-18 09:56S 27°37' E 153°19'2 3.6
2018-Jun-18 09:30S 27°38' E 153°20'3 5.5
2018-Jun-18 08:59S 27°38' E 153°23'0 0.4
2018-Jun-18 08:30S 27°38' E 153°23'2 4.0
2018-Jun-18 08:00S 27°39' E 153°21'2 4.8
2018-Jun-18 07:30S 27°37' E 153°19'3 5.7
2018-Jun-18 07:01S 27°39' E 153°21'2 3.9
2018-Jun-18 06:30S 27°38' E 153°23'0 0.7
2018-Jun-18 06:00S 27°38' E 153°23'1 2.7
2018-Jun-18 05:30S 27°38' E 153°21'3 5.6
2018-Jun-18 05:00S 27°37' E 153°19'2 3.7
2018-Jun-18 04:30S 27°38' E 153°20'2 3.1
2018-Jun-18 04:00S 27°38' E 153°22'1 2.0
2018-Jun-18 03:27S 27°39' E 153°23'1 2.6
2018-Jun-18 03:00S 27°38' E 153°22'2 4.7
2018-Jun-18 02:30S 27°37' E 153°19'0 0.3
2018-Jun-18 02:01S 27°37' E 153°19'2 4.7
2018-Jun-18 01:30S 27°38' E 153°22'1 1.7
2018-Jun-18 00:48S 27°39' E 153°23'1 3.2
2018-Jun-18 00:30S 27°38' E 153°22'2 3.6
2018-Jun-18 00:00S 27°38' E 153°20'2 4.0
2018-Jun-17 23:30S 27°37' E 153°19'3 5.5
2018-Jun-17 23:00S 27°39' E 153°21'1 2.9
2018-Jun-17 22:29S 27°38' E 153°22'1 1.9
2018-Jun-17 22:00S 27°39' E 153°23'1 2.3
2018-Jun-17 21:30S 27°38' E 153°22'2 4.2
2018-Jun-17 21:00S 27°38' E 153°20'1 2.3
2018-Jun-17 20:30S 27°37' E 153°19'0 0.0
2018-Jun-17 08:05S 27°37' E 153°19'0 0.0
2018-Jun-17 07:59S 27°37' E 153°19'3 5.5
2018-Jun-17 07:30S 27°39' E 153°21'2 4.1
2018-Jun-17 07:00S 27°38' E 153°23'1 1.1
2018-Jun-17 06:28S 27°38' E 153°22'1 2.9
2018-Jun-17 06:00S 27°39' E 153°21'3 5.2
2018-Jun-17 05:28S 27°37' E 153°19'2 5.2
2018-Jun-17 05:00S 27°38' E 153°21'2 3.2
2018-Jun-17 04:30S 27°38' E 153°22'1 1.8
2018-Jun-17 04:00S 27°39' E 153°23'1 2.5
2018-Jun-17 03:30S 27°38' E 153°22'3 6.1
2018-Jun-17 03:00S 27°37' E 153°19'2 3.8
2018-Jun-17 02:30S 27°38' E 153°20'2 3.7
2018-Jun-17 02:00S 27°38' E 153°22'1 1.9
2018-Jun-17 01:30S 27°39' E 153°23'1 2.5
2018-Jun-17 01:00S 27°38' E 153°22'3 5.9
2018-Jun-17 00:30S 27°37' E 153°19'2 4.6
2018-Jun-17 00:00S 27°38' E 153°21'2 3.3
2018-Jun-16 23:30S 27°38' E 153°22'1 2.0
2018-Jun-16 23:00S 27°38' E 153°23'2 3.4
2018-Jun-16 22:30S 27°38' E 153°21'3 5.7
2018-Jun-16 22:00S 27°37' E 153°19'0 0.0
2018-Jun-16 21:30S 27°37' E 153°19'0 0.0
2018-Jun-16 08:50S 27°37' E 153°19'2 4.5
2018-Jun-16 08:30S 27°38' E 153°20'3 6.5
2018-Jun-16 08:00S 27°38' E 153°24'1 2.2
2018-Jun-16 07:31S 27°38' E 153°22'2 4.5
2018-Jun-16 07:00S 27°38' E 153°20'1 2.5
2018-Jun-16 06:30S 27°37' E 153°19'3 5.3
2018-Jun-16 05:59S 27°38' E 153°21'1 3.1
2018-Jun-16 05:30S 27°39' E 153°23'1 1.7
2018-Jun-16 04:55S 27°38' E 153°22'2 4.7
2018-Jun-16 04:30S 27°38' E 153°20'2 3.4
2018-Jun-16 04:00S 27°37' E 153°19'3 5.7
2018-Jun-16 03:29S 27°38' E 153°22'1 2.6
2018-Jun-16 03:00S 27°39' E 153°23'1 2.3
2018-Jun-16 02:30S 27°38' E 153°22'2 4.7
2018-Jun-16 02:00S 27°37' E 153°19'0 0.9
2018-Jun-16 01:30S 27°37' E 153°19'3 5.2
2018-Jun-16 01:00S 27°38' E 153°22'1 2.3
2018-Jun-16 00:30S 27°39' E 153°23'1 2.3
2018-Jun-16 00:00S 27°38' E 153°22'2 4.6
2018-Jun-15 23:30S 27°37' E 153°19'0 0.9
2018-Jun-15 23:00S 27°37' E 153°19'2 4.7
2018-Jun-15 22:29S 27°38' E 153°22'1 2.4
2018-Jun-15 21:58S 27°39' E 153°23'1 2.4
2018-Jun-15 21:30S 27°38' E 153°22'2 4.0
2018-Jun-15 21:00S 27°38' E 153°20'1 2.6
2018-Jun-15 20:29S 27°37' E 153°19'0 0.0
2018-Jun-15 09:52S 27°37' E 153°19'1 1.7
2018-Jun-15 09:30S 27°37' E 153°19'3 6.0
2018-Jun-15 09:00S 27°38' E 153°23'0 0.2
2018-Jun-15 08:30S 27°38' E 153°23'1 2.7
2018-Jun-15 07:59S 27°39' E 153°21'  
Track history (hours):
 
Tides and Currents Weather Stations Pressure Air Temp Water Temp Dewpoint Dewpoint Depression Visibility Wind Speed Wind Dir Waves Ship Positions

Stradbroke Venture

Last reported at 2018-Jun-25 07:55 UTC. Time now 2018-Jun-25 08:09 UTC.
Position S 27°39' E 153°23'.

Length 54 m; draft 1.4 m.

Type: Other ship. MMSI: 503690000.

Date/timePositionNaut miles runAvg speedWind from/ knotsBaromVisibWave heightAir tempDewpointWater temp
2018-Jun-25 07:55S 27°39' E 153°23'1 2.4
2018-Jun-25 07:30S 27°38' E 153°22'2 3.6
2018-Jun-25 07:00S 27°38' E 153°20'2 4.0
2018-Jun-25 06:30S 27°37' E 153°19'3 5.8
2018-Jun-25 06:01S 27°38' E 153°22'1 2.7
2018-Jun-25 05:31S 27°39' E 153°23'1 2.2
2018-Jun-25 05:01S 27°38' E 153°22'2 4.0
2018-Jun-25 04:30S 27°38' E 153°20'1 1.4
2018-Jun-25 04:00S 27°37' E 153°19'3 5.0
2018-Jun-25 03:31S 27°38' E 153°22'1 2.3
2018-Jun-25 03:01S 27°39' E 153°23'1 2.7
2018-Jun-25 02:31S 27°38' E 153°22'2 4.3
2018-Jun-25 02:00S 27°37' E 153°19'0 0.2
2018-Jun-25 01:30S 27°37' E 153°19'2 4.9
2018-Jun-25 01:00S 27°38' E 153°22'1 2.3
2018-Jun-25 00:30S 27°39' E 153°23'1 1.8
2018-Jun-25 00:00S 27°38' E 153°22'2 3.9
2018-Jun-24 23:31S 27°38' E 153°20'2 3.6
2018-Jun-24 23:01S 27°37' E 153°19'3 5.3
2018-Jun-24 22:27S 27°38' E 153°22'1 2.7
2018-Jun-24 22:00S 27°39' E 153°23'1 1.9
2018-Jun-24 21:31S 27°38' E 153°22'2 3.2
2018-Jun-24 21:01S 27°38' E 153°21'2 4.7
2018-Jun-24 20:31S 27°37' E 153°19'0 0.0
2018-Jun-24 07:59S 27°37' E 153°19'2 4.1
2018-Jun-24 07:31S 27°38' E 153°20'2 3.7
2018-Jun-24 07:00S 27°38' E 153°22'1 2.3
2018-Jun-24 06:30S 27°38' E 153°24'2 4.6
2018-Jun-24 06:00S 27°39' E 153°21'3 5.5
2018-Jun-24 05:30S 27°37' E 153°19'3 5.6
2018-Jun-24 05:00S 27°39' E 153°21'2 4.1
2018-Jun-24 04:29S 27°38' E 153°23'0 0.4
2018-Jun-24 04:00S 27°38' E 153°24'3 5.1
2018-Jun-24 03:30S 27°39' E 153°21'2 4.9
2018-Jun-24 03:00S 27°37' E 153°19'3 5.7
2018-Jun-24 02:30S 27°38' E 153°22'1 1.5
2018-Jun-24 02:00S 27°38' E 153°22'1 1.8
2018-Jun-24 01:30S 27°39' E 153°23'2 3.1
2018-Jun-24 01:00S 27°38' E 153°21'3 5.4
2018-Jun-24 00:29S 27°37' E 153°19'2 3.6
2018-Jun-24 00:00S 27°38' E 153°20'2 4.1
2018-Jun-23 23:30S 27°38' E 153°22'1 1.7
2018-Jun-23 23:00S 27°39' E 153°23'1 2.5
2018-Jun-23 22:29S 27°38' E 153°22'3 6.1
2018-Jun-23 22:00S 27°37' E 153°19'0 0.0
2018-Jun-23 21:30S 27°37' E 153°19'0 0.0
2018-Jun-23 08:31S 27°37' E 153°19'0 0.0
2018-Jun-23 08:30S 27°37' E 153°19'3 6.3
2018-Jun-23 08:00S 27°39' E 153°22'1 1.8
2018-Jun-23 07:30S 27°38' E 153°22'2 4.3
2018-Jun-23 07:01S 27°38' E 153°20'1 2.2
2018-Jun-23 06:30S 27°37' E 153°19'2 4.7
2018-Jun-23 05:59S 27°38' E 153°22'1 2.6
2018-Jun-23 05:30S 27°39' E 153°23'1 2.0
2018-Jun-23 05:01S 27°38' E 153°22'2 4.5
2018-Jun-23 04:31S 27°38' E 153°20'1 1.8
2018-Jun-23 04:00S 27°37' E 153°19'3 5.0
2018-Jun-23 03:29S 27°38' E 153°22'1 2.5
2018-Jun-23 03:00S 27°39' E 153°23'1 2.3
2018-Jun-23 02:30S 27°38' E 153°22'2 4.9
2018-Jun-23 02:00S 27°37' E 153°19'0 0.8
2018-Jun-23 01:30S 27°37' E 153°19'3 5.2
2018-Jun-23 01:00S 27°38' E 153°22'1 2.4
2018-Jun-23 00:31S 27°39' E 153°23'1 2.3
2018-Jun-23 00:00S 27°38' E 153°22'2 3.7
2018-Jun-22 23:30S 27°38' E 153°20'1 2.9
2018-Jun-22 23:00S 27°37' E 153°19'3 5.7
2018-Jun-22 22:30S 27°38' E 153°22'1 1.9
2018-Jun-22 21:47S 27°39' E 153°23'1 3.7
2018-Jun-22 21:30S 27°38' E 153°22'2 4.5
2018-Jun-22 21:00S 27°38' E 153°20'1 2.3
2018-Jun-22 20:30S 27°37' E 153°19'0 0.0
2018-Jun-22 09:03S 27°37' E 153°19'0 0.2
2018-Jun-22 09:00S 27°37' E 153°19'3 5.4
2018-Jun-22 08:30S 27°39' E 153°21'2 3.5
2018-Jun-22 08:00S 27°39' E 153°23'1 1.8
2018-Jun-22 07:30S 27°38' E 153°22'2 3.5
2018-Jun-22 07:00S 27°38' E 153°20'2 4.3
2018-Jun-22 06:30S 27°37' E 153°19'3 5.8
2018-Jun-22 06:00S 27°38' E 153°22'1 2.6
2018-Jun-22 05:30S 27°39' E 153°23'1 2.4
2018-Jun-22 05:00S 27°38' E 153°22'2 3.5
2018-Jun-22 04:30S 27°38' E 153°20'1 2.3
2018-Jun-22 04:00S 27°37' E 153°19'3 5.3
2018-Jun-22 03:30S 27°38' E 153°22'1 2.1
2018-Jun-22 02:57S 27°39' E 153°23'1 2.6
2018-Jun-22 02:30S 27°38' E 153°22'2 4.6
2018-Jun-22 02:00S 27°37' E 153°19'1 1.4
2018-Jun-22 01:29S 27°37' E 153°19'3 5.5
2018-Jun-22 01:00S 27°38' E 153°22'1 2.4
2018-Jun-22 00:29S 27°39' E 153°23'1 2.1
2018-Jun-22 00:00S 27°38' E 153°22'2 4.5
2018-Jun-21 23:30S 27°38' E 153°20'0 0.8
2018-Jun-21 23:00S 27°37' E 153°19'2 4.7
2018-Jun-21 22:30S 27°38' E 153°22'1 2.3
2018-Jun-21 22:00S 27°39' E 153°23'1 2.0
2018-Jun-21 21:30S 27°38' E 153°22'2 3.4
2018-Jun-21 21:00S 27°38' E 153°20'2 4.0
2018-Jun-21 20:28S 27°37' E 153°19'0 0.0
2018-Jun-21 09:41S 27°37' E 153°19'0 0.0
2018-Jun-21 09:30S 27°37' E 153°19'0 0.8
2018-Jun-21 09:00S 27°37' E 153°19'3 5.3
2018-Jun-21 08:30S 27°38' E 153°22'1 2.5
2018-Jun-21 08:00S 27°39' E 153°23'1 2.2
2018-Jun-21 07:31S 27°38' E 153°22'3 5.0
2018-Jun-21 07:00S 27°37' E 153°19'1 1.2
2018-Jun-21 06:30S 27°37' E 153°19'3 5.7
2018-Jun-21 06:01S 27°38' E 153°22'1 2.4
2018-Jun-21 05:29S 27°39' E 153°23'1 2.0
2018-Jun-21 05:00S 27°38' E 153°22'2 3.7
2018-Jun-21 04:31S 27°38' E 153°20'2 4.0
2018-Jun-21 04:01S 27°37' E 153°19'3 5.9
2018-Jun-21 03:30S 27°38' E 153°22'1 2.0
2018-Jun-21 02:52S 27°39' E 153°23'1 3.0
2018-Jun-21 02:30S 27°38' E 153°22'2 4.6
2018-Jun-21 02:00S 27°37' E 153°19'0 0.4
2018-Jun-21 01:30S 27°37' E 153°19'2 4.8
2018-Jun-21 01:00S 27°38' E 153°22'1 2.0
2018-Jun-21 00:25S 27°39' E 153°23'1 2.8
2018-Jun-21 00:00S 27°38' E 153°22'2 4.8
2018-Jun-20 23:30S 27°37' E 153°19'1 1.9
2018-Jun-20 23:01S 27°38' E 153°20'2 3.6
2018-Jun-20 22:26S 27°38' E 153°22'1 1.8
2018-Jun-20 21:59S 27°39' E 153°23'1 2.4
2018-Jun-20 21:30S 27°38' E 153°22'2 3.4
2018-Jun-20 21:00S 27°38' E 153°20'2 3.4
2018-Jun-20 20:30S 27°37' E 153°19'0 0.0
2018-Jun-20 08:57S 27°37' E 153°19'2 5.0
2018-Jun-20 08:30S 27°38' E 153°21'2 4.3
2018-Jun-20 08:00S 27°39' E 153°23'1 1.8
2018-Jun-20 07:30S 27°38' E 153°22'2 4.0
2018-Jun-20 07:00S 27°38' E 153°20'2 3.4
2018-Jun-20 06:30S 27°37' E 153°19'3 5.7
2018-Jun-20 06:00S 27°38' E 153°21'1 2.7
2018-Jun-20 05:30S 27°39' E 153°23'1 2.3
2018-Jun-20 05:01S 27°38' E 153°22'2 4.0
2018-Jun-20 04:30S 27°38' E 153°20'1 2.4
2018-Jun-20 04:00S 27°37' E 153°19'3 5.5
2018-Jun-20 03:30S 27°38' E 153°22'1 2.6
2018-Jun-20 03:00S 27°39' E 153°23'1 1.9
2018-Jun-20 02:30S 27°38' E 153°22'2 3.7
2018-Jun-20 02:00S 27°38' E 153°20'2 3.6
2018-Jun-20 01:30S 27°37' E 153°19'3 5.6
2018-Jun-20 00:59S 27°38' E 153°22'1 2.6
2018-Jun-20 00:30S 27°39' E 153°23'1 2.3
2018-Jun-20 00:00S 27°38' E 153°22'2 4.5
2018-Jun-19 23:30S 27°37' E 153°19'0 0.7
2018-Jun-19 23:00S 27°38' E 153°20'2 4.2
2018-Jun-19 22:30S 27°38' E 153°22'1 1.8
2018-Jun-19 21:56S 27°39' E 153°23'1 2.8
2018-Jun-19 21:31S 27°38' E 153°22'2 3.1
2018-Jun-19 21:00S 27°38' E 153°20'2 3.6
2018-Jun-19 20:29S 27°37' E 153°19'0 0.0
2018-Jun-19 09:09S 27°37' E 153°19'0 0.0
2018-Jun-19 09:00S 27°37' E 153°19'3 5.6
2018-Jun-19 08:30S 27°38' E 153°21'1 2.9
2018-Jun-19 08:00S 27°39' E 153°23'1 1.9
2018-Jun-19 07:30S 27°38' E 153°22'2 4.0
2018-Jun-19 07:00S 27°38' E 153°20'2 3.4
2018-Jun-19 06:30S 27°37' E 153°19'3 5.7
2018-Jun-19 06:00S 27°38' E 153°21'1 2.8
2018-Jun-19 05:30S 27°39' E 153°23'1 2.4
2018-Jun-19 05:01S 27°38' E 153°22'3 6.1
2018-Jun-19 04:30S 27°37' E 153°19'2 4.2
2018-Jun-19 04:00S 27°38' E 153°20'2 3.4
2018-Jun-19 03:30S 27°38' E 153°22'1 2.4
2018-Jun-19 03:00S 27°38' E 153°24'2 3.9
2018-Jun-19 02:30S 27°38' E 153°21'3 5.6
2018-Jun-19 02:00S 27°37' E 153°19'3 5.5
2018-Jun-19 01:30S 27°39' E 153°21'2 3.9
2018-Jun-19 01:00S 27°38' E 153°23'0 0.2
2018-Jun-19 00:30S 27°38' E 153°23'2 3.1
2018-Jun-19 00:00S 27°38' E 153°21'3 5.6
2018-Jun-18 23:30S 27°37' E 153°19'2 4.6
2018-Jun-18 23:00S 27°38' E 153°21'2 3.3
2018-Jun-18 22:30S 27°38' E 153°22'1 1.8
2018-Jun-18 22:00S 27°39' E 153°23'1 2.3
2018-Jun-18 21:30S 27°38' E 153°22'2 3.6
2018-Jun-18 21:00S 27°38' E 153°20'2 3.1
2018-Jun-18 20:30S 27°37' E 153°19'0 0.0
2018-Jun-18 09:56S 27°37' E 153°19'2 3.6
2018-Jun-18 09:30S 27°38' E 153°20'3 5.5
2018-Jun-18 08:59S 27°38' E 153°23'0 0.4
2018-Jun-18 08:30S 27°38' E 153°23'2 4.0
2018-Jun-18 08:00S 27°39' E 153°21'2 4.8
2018-Jun-18 07:30S 27°37' E 153°19'3 5.7
2018-Jun-18 07:01S 27°39' E 153°21'2 3.9
2018-Jun-18 06:30S 27°38' E 153°23'0 0.7
2018-Jun-18 06:00S 27°38' E 153°23'1 2.7
2018-Jun-18 05:30S 27°38' E 153°21'3 5.6
2018-Jun-18 05:00S 27°37' E 153°19'2 3.7
2018-Jun-18 04:30S 27°38' E 153°20'2 3.1
2018-Jun-18 04:00S 27°38' E 153°22'1 2.0
2018-Jun-18 03:27S 27°39' E 153°23'1 2.6
2018-Jun-18 03:00S 27°38' E 153°22'2 4.7
2018-Jun-18 02:30S 27°37' E 153°19'0 0.3
2018-Jun-18 02:01S 27°37' E 153°19'2 4.7
2018-Jun-18 01:30S 27°38' E 153°22'1 1.7
2018-Jun-18 00:48S 27°39' E 153°23'1 3.2
2018-Jun-18 00:30S 27°38' E 153°22'2 3.6
2018-Jun-18 00:00S 27°38' E 153°20'2 4.0
2018-Jun-17 23:30S 27°37' E 153°19'3 5.5
2018-Jun-17 23:00S 27°39' E 153°21'1 2.9
2018-Jun-17 22:29S 27°38' E 153°22'1 1.9
2018-Jun-17 22:00S 27°39' E 153°23'1 2.3
2018-Jun-17 21:30S 27°38' E 153°22'2 4.2
2018-Jun-17 21:00S 27°38' E 153°20'1 2.3
2018-Jun-17 20:30S 27°37' E 153°19'0 0.0
2018-Jun-17 08:05S 27°37' E 153°19'0 0.0
2018-Jun-17 07:59S 27°37' E 153°19'3 5.5
2018-Jun-17 07:30S 27°39' E 153°21'2 4.1
2018-Jun-17 07:00S 27°38' E 153°23'1 1.1
2018-Jun-17 06:28S 27°38' E 153°22'1 2.9
2018-Jun-17 06:00S 27°39' E 153°21'3 5.2
2018-Jun-17 05:28S 27°37' E 153°19'2 5.2
2018-Jun-17 05:00S 27°38' E 153°21'2 3.2
2018-Jun-17 04:30S 27°38' E 153°22'1 1.8
2018-Jun-17 04:00S 27°39' E 153°23'1 2.5
2018-Jun-17 03:30S 27°38' E 153°22'3 6.1
2018-Jun-17 03:00S 27°37' E 153°19'2 3.8
2018-Jun-17 02:30S 27°38' E 153°20'2 3.7
2018-Jun-17 02:00S 27°38' E 153°22'1 1.9
2018-Jun-17 01:30S 27°39' E 153°23'1 2.5
2018-Jun-17 01:00S 27°38' E 153°22'3 5.9
2018-Jun-17 00:30S 27°37' E 153°19'2 4.6
2018-Jun-17 00:00S 27°38' E 153°21'2 3.3
2018-Jun-16 23:30S 27°38' E 153°22'1 2.0
2018-Jun-16 23:00S 27°38' E 153°23'2 3.4
2018-Jun-16 22:30S 27°38' E 153°21'3 5.7
2018-Jun-16 22:00S 27°37' E 153°19'0 0.0
2018-Jun-16 21:30S 27°37' E 153°19'0 0.0
2018-Jun-16 08:50S 27°37' E 153°19'2 4.5
2018-Jun-16 08:30S 27°38' E 153°20'3 6.5
2018-Jun-16 08:00S 27°38' E 153°24'1 2.2
2018-Jun-16 07:31S 27°38' E 153°22'2 4.5
2018-Jun-16 07:00S 27°38' E 153°20'1 2.5
2018-Jun-16 06:30S 27°37' E 153°19'3 5.3
2018-Jun-16 05:59S 27°38' E 153°21'1 3.1
2018-Jun-16 05:30S 27°39' E 153°23'1 1.7
2018-Jun-16 04:55S 27°38' E 153°22'2 4.7
2018-Jun-16 04:30S 27°38' E 153°20'2 3.4
2018-Jun-16 04:00S 27°37' E 153°19'3 5.7
2018-Jun-16 03:29S 27°38' E 153°22'1 2.6
2018-Jun-16 03:00S 27°39' E 153°23'1 2.3
2018-Jun-16 02:30S 27°38' E 153°22'2 4.7
2018-Jun-16 02:00S 27°37' E 153°19'0 0.9
2018-Jun-16 01:30S 27°37' E 153°19'3 5.2
2018-Jun-16 01:00S 27°38' E 153°22'1 2.3
2018-Jun-16 00:30S 27°39' E 153°23'1 2.3
2018-Jun-16 00:00S 27°38' E 153°22'2 4.6
2018-Jun-15 23:30S 27°37' E 153°19'0 0.9
2018-Jun-15 23:00S 27°37' E 153°19'2 4.7
2018-Jun-15 22:29S 27°38' E 153°22'1 2.4
2018-Jun-15 21:58S 27°39' E 153°23'1 2.4
2018-Jun-15 21:30S 27°38' E 153°22'2 4.0
2018-Jun-15 21:00S 27°38' E 153°20'1 2.6
2018-Jun-15 20:29S 27°37' E 153°19'0 0.0
2018-Jun-15 09:52S 27°37' E 153°19'1 1.7
2018-Jun-15 09:30S 27°37' E 153°19'3 6.0
2018-Jun-15 09:00S 27°38' E 153°23'0 0.2
2018-Jun-15 08:30S 27°38' E 153°23'1 2.7
2018-Jun-15 07:59S 27°39' E 153°21'  

Dump ship's entire track history